Time;durP1;ratioP1;P1;durP2;ratioP2;P2;SDS_P1;SDS_P2;PMS_P1;PMS_P2;Temp;Humidity;BMP_temperature;BMP_pressure;BME280_temperature;BME280_humidity;BME280_pressure;Samples;Min_cycle;Max_cycle;Signal;HPM_P1;HPM_P2
2020/06/07 00:02:10;;;;;;;8;7.4;;;;;;;13.95;100;948.9503;;;;
2020/06/07 00:04:32;;;;;;;7.8;7.2;;;;;;;13.97;100;948.8795;;;;
2020/06/07 00:07:07;;;;;;;7.9;7.3;;;;;;;13.97;100;948.8492;;;;
2020/06/07 00:09:57;;;;;;;6.9;6.4;;;;;;;13.91;100;948.8425;;;;
2020/06/07 00:12:20;;;;;;;6.6;6.2;;;;;;;13.93;100;948.926;;;;
2020/06/07 00:14:46;;;;;;;6.7;6.2;;;;;;;13.96;100;948.8641;;;;
2020/06/07 00:17:29;;;;;;;6.7;6.3;;;;;;;13.93;100;948.7989;;;;
2020/06/07 00:20:04;;;;;;;6.7;6.1;;;;;;;13.96;100;948.7994;;;;
2020/06/07 00:22:37;;;;;;;7.4;6.8;;;;;;;13.9;100;948.8149;;;;
2020/06/07 00:25:10;;;;;;;7.2;6.6;;;;;;;13.92;100;948.7908;;;;
2020/06/07 00:30:48;;;;;;;7.9;7.3;;;;;;;13.89;100;948.8225;;;;
2020/06/07 00:37:35;;;;;;;8.5;7.9;;;;;;;13.79;100;948.6697;;;;
2020/06/07 00:40:16;;;;;;;9.1;8.2;;;;;;;13.79;100;948.6409;;;;
2020/06/07 00:42:41;;;;;;;8.9;8.2;;;;;;;13.9;100;948.6584;;;;
2020/06/07 00:45:09;;;;;;;8.6;7.9;;;;;;;13.89;100;948.7454;;;;
2020/06/07 00:47:43;;;;;;;8.2;7.6;;;;;;;13.88;100;948.7438;;;;
2020/06/07 00:50:10;;;;;;;10;9.2;;;;;;;13.86;100;948.637;;;;
2020/06/07 00:52:42;;;;;;;10;9.3;;;;;;;13.87;100;948.5564;;;;
2020/06/07 00:55:16;;;;;;;10.6;9.7;;;;;;;13.88;100;948.557;;;;
2020/06/07 00:57:58;;;;;;;10.5;9.7;;;;;;;13.84;100;948.4995;;;;
2020/06/07 01:00:28;;;;;;;11;10.2;;;;;;;13.9;100;948.4889;;;;
2020/06/07 01:03:09;;;;;;;12.1;11.1;;;;;;;13.85;100;948.4741;;;;
2020/06/07 01:06:08;;;;;;;11.6;10.7;;;;;;;13.87;100;948.5147;;;;
2020/06/07 01:08:32;;;;;;;12;11.1;;;;;;;13.89;100;948.562;;;;
2020/06/07 01:11:05;;;;;;;12.6;11.6;;;;;;;13.86;100;948.6279;;;;
2020/06/07 01:13:42;;;;;;;13.1;12;;;;;;;13.89;100;948.6978;;;;
2020/06/07 01:17:30;;;;;;;13.5;12.4;;;;;;;13.89;100;948.7184;;;;
2020/06/07 01:19:56;;;;;;;13.6;12.6;;;;;;;13.91;100;948.7065;;;;
2020/06/07 01:22:36;;;;;;;13.7;12.7;;;;;;;13.94;100;948.7056;;;;
2020/06/07 01:24:59;;;;;;;13.9;12.8;;;;;;;13.95;100;948.6211;;;;
2020/06/07 01:27:24;;;;;;;14;12.9;;;;;;;13.96;100;948.5153;;;;
2020/06/07 01:29:53;;;;;;;15;13.8;;;;;;;13.96;100;948.5307;;;;
2020/06/07 01:32:25;;;;;;;15.2;14;;;;;;;13.99;100;948.4141;;;;
2020/06/07 01:34:55;;;;;;;15.2;14;;;;;;;13.94;100;948.36;;;;
2020/06/07 01:37:29;;;;;;;14.3;13.2;;;;;;;13.95;100;948.427;;;;
2020/06/07 01:42:25;;;;;;;15.5;14.3;;;;;;;14;100;948.4011;;;;
2020/06/07 01:45:02;;;;;;;15.8;14.5;;;;;;;13.92;100;948.4626;;;;
2020/06/07 01:47:30;;;;;;;14.1;13;;;;;;;14.01;100;948.4606;;;;
2020/06/07 01:50:00;;;;;;;14.3;13.1;;;;;;;14.02;100;948.3997;;;;
2020/06/07 01:52:26;;;;;;;14.6;13.5;;;;;;;13.98;100;948.3939;;;;
2020/06/07 01:57:50;;;;;;;13.9;12.8;;;;;;;13.96;100;948.3024;;;;
2020/06/07 02:05:30;;;;;;;13.7;12.6;;;;;;;14;100;948.3574;;;;
2020/06/07 02:10:43;;;;;;;14.1;13;;;;;;;13.99;100;948.3354;;;;
2020/06/07 02:23:14;;;;;;;15.5;14.2;;;;;;;13.74;100;948.4982;;;;
2020/06/07 02:25:58;;;;;;;14.7;13.5;;;;;;;13.84;100;948.6501;;;;
2020/06/07 02:28:21;;;;;;;15.2;14;;;;;;;13.84;100;948.7206;;;;
2020/06/07 02:31:09;;;;;;;15.1;13.9;;;;;;;13.85;100;948.8072;;;;
2020/06/07 02:33:31;;;;;;;15.8;14.5;;;;;;;13.89;100;948.8248;;;;
2020/06/07 02:38:45;;;;;;;14.6;13.5;;;;;;;13.91;100;948.6575;;;;
2020/06/07 02:41:29;;;;;;;14.6;13.4;;;;;;;13.94;100;948.6342;;;;
2020/06/07 02:43:45;;;;;;;14.4;13.3;;;;;;;13.95;100;948.6539;;;;
2020/06/07 02:51:08;;;;;;;13.6;12.6;;;;;;;13.87;100;948.7406;;;;
2020/06/07 02:55:57;;;;;;;13.5;12.5;;;;;;;13.91;100;948.8354;;;;
2020/06/07 02:58:31;;;;;;;12.6;11.6;;;;;;;14;100;948.8688;;;;
2020/06/07 03:01:15;;;;;;;14.9;13.7;;;;;;;13.9;100;948.832;;;;
2020/06/07 03:08:22;;;;;;;16;14.7;;;;;;;13.77;100;948.7853;;;;
2020/06/07 03:11:04;;;;;;;16;14.8;;;;;;;13.77;100;948.7698;;;;
2020/06/07 03:13:28;;;;;;;16.4;15.1;;;;;;;13.78;100;948.717;;;;
2020/06/07 03:15:40;;;;;;;15.2;14;;;;;;;13.76;100;948.8745;;;;
2020/06/07 03:18:04;;;;;;;15.9;14.5;;;;;;;13.85;100;948.9703;;;;
2020/06/07 03:20:54;;;;;;;14.7;13.6;;;;;;;13.85;100;948.9275;;;;
2020/06/07 03:23:21;;;;;;;12.9;11.9;;;;;;;13.65;100;948.8333;;;;
2020/06/07 03:26:00;;;;;;;9.7;9;;;;;;;13.61;100;948.846;;;;
2020/06/07 03:28:25;;;;;;;8;7.3;;;;;;;13.43;100;948.9114;;;;
2020/06/07 03:30:59;;;;;;;5.9;5.5;;;;;;;13.3;100;948.8029;;;;
2020/06/07 03:33:31;;;;;;;4.3;4;;;;;;;13.19;100;948.812;;;;
2020/06/07 03:36:03;;;;;;;4.2;3.9;;;;;;;13.06;100;948.7933;;;;
2020/06/07 03:38:23;;;;;;;4.1;3.8;;;;;;;13.05;100;948.7975;;;;
2020/06/07 03:40:58;;;;;;;4.1;3.8;;;;;;;12.93;100;948.6972;;;;
2020/06/07 03:46:11;;;;;;;4.2;3.9;;;;;;;13.06;100;948.6273;;;;
2020/06/07 03:51:00;;;;;;;3.4;3.1;;;;;;;13.13;100;948.6505;;;;
2020/06/07 03:53:44;;;;;;;3.1;2.9;;;;;;;13;100;948.7578;;;;
2020/06/07 03:56:20;;;;;;;2.1;1.9;;;;;;;13.03;100;948.7795;;;;
2020/06/07 03:58:36;;;;;;;1.8;1.7;;;;;;;12.96;100;948.7935;;;;
2020/06/07 04:14:14;;;;;;;1.3;1.2;;;;;;;12.8;100;949.0652;;;;
2020/06/07 04:18:04;;;;;;;1.4;1.2;;;;;;;12.93;100;949.0912;;;;
2020/06/07 04:20:47;;;;;;;1.6;1.3;;;;;;;12.8;100;948.9688;;;;
2020/06/07 04:29:14;;;;;;;1.2;1.1;;;;;;;12.63;100;948.9052;;;;
2020/06/07 04:31:45;;;;;;;1.1;0.9;;;;;;;12.64;100;948.9353;;;;
2020/06/07 04:33:58;;;;;;;2.9;1.3;;;;;;;12.6;100;948.9136;;;;
2020/06/07 04:39:22;;;;;;;1.6;1.2;;;;;;;12.68;100;948.8697;;;;
2020/06/07 04:41:45;;;;;;;1.4;1;;;;;;;12.68;100;948.8361;;;;
2020/06/07 04:54:40;;;;;;;1.1;1;;;;;;;12.7;100;948.9373;;;;
2020/06/07 04:59:34;;;;;;;1.9;1.4;;;;;;;12.67;100;949.0381;;;;
2020/06/07 05:02:10;;;;;;;2.1;1.5;;;;;;;12.71;100;948.9947;;;;
2020/06/07 05:04:31;;;;;;;2.4;1.6;;;;;;;12.68;100;949.0486;;;;
2020/06/07 05:10:40;;;;;;;1.8;1.6;;;;;;;12.74;100;949.0442;;;;
2020/06/07 05:19:31;;;;;;;1.7;1.4;;;;;;;12.73;100;948.988;;;;
2020/06/07 05:27:14;;;;;;;1.3;1.2;;;;;;;12.58;100;949.0184;;;;
2020/06/07 05:29:30;;;;;;;2.3;1.3;;;;;;;12.55;100;949.0201;;;;
2020/06/07 05:41:57;;;;;;;2.7;1.6;;;;;;;12.6;100;949.3125;;;;
2020/06/07 05:44:35;;;;;;;5.3;1.7;;;;;;;12.54;100;949.366;;;;
2020/06/07 05:52:16;;;;;;;2.4;1.8;;;;;;;12.42;100;949.4114;;;;
2020/06/07 05:59:53;;;;;;;1.9;1.7;;;;;;;12.39;100;949.463;;;;
2020/06/07 06:02:18;;;;;;;1.7;1.6;;;;;;;12.49;100;949.4526;;;;
2020/06/07 06:05:06;;;;;;;2.4;1.8;;;;;;;12.5;100;949.4428;;;;
2020/06/07 06:07:14;;;;;;;1.8;1.7;;;;;;;12.53;100;949.4384;;;;
2020/06/07 06:10:02;;;;;;;2;1.8;;;;;;;12.56;100;949.4506;;;;
2020/06/07 06:12:34;;;;;;;2.5;1.7;;;;;;;12.46;100;949.4888;;;;
2020/06/07 06:15:08;;;;;;;4;2.3;;;;;;;12.44;100;949.5222;;;;
2020/06/07 06:18:09;;;;;;;2.4;2.2;;;;;;;12.34;100;949.5172;;;;
2020/06/07 06:20:58;;;;;;;2.2;2;;;;;;;12.52;100;949.4869;;;;
2020/06/07 06:22:45;;;;;;;2.3;2;;;;;;;12.65;100;949.4542;;;;
2020/06/07 06:25:17;;;;;;;3.4;2.1;;;;;;;12.52;100;949.5187;;;;
2020/06/07 06:27:42;;;;;;;2.3;2.1;;;;;;;12.53;100;949.4638;;;;
2020/06/07 06:30:12;;;;;;;2.3;2.1;;;;;;;12.58;100;949.4989;;;;
2020/06/07 06:32:57;;;;;;;3.1;2.1;;;;;;;12.66;100;949.5034;;;;
2020/06/07 06:35:28;;;;;;;2.5;2.3;;;;;;;12.63;100;949.5076;;;;
2020/06/07 06:37:51;;;;;;;2.3;2.1;;;;;;;12.66;100;949.4764;;;;
2020/06/07 06:40:19;;;;;;;3;2.5;;;;;;;12.67;100;949.4771;;;;
2020/06/07 06:43:11;;;;;;;3.2;2.3;;;;;;;12.68;100;949.5662;;;;
2020/06/07 06:45:36;;;;;;;3.1;2.6;;;;;;;12.7;100;949.6397;;;;
2020/06/07 06:48:22;;;;;;;3.1;2.4;;;;;;;12.31;100;949.6733;;;;
2020/06/07 06:55:47;;;;;;;3.2;2.3;;;;;;;12.31;100;949.7558;;;;
2020/06/07 06:58:23;;;;;;;3;2.7;;;;;;;12.37;100;949.7916;;;;
2020/06/07 07:00:55;;;;;;;3.1;2.9;;;;;;;12.43;100;949.7357;;;;
2020/06/07 07:03:24;;;;;;;3;2.8;;;;;;;12.36;100;949.7393;;;;
2020/06/07 07:05:47;;;;;;;3;2.7;;;;;;;12.4;100;949.8453;;;;
2020/06/07 07:08:35;;;;;;;3;2.7;;;;;;;12.38;100;949.9261;;;;
2020/06/07 07:10:59;;;;;;;2.7;2.5;;;;;;;12.41;100;949.9222;;;;
2020/06/07 07:13:24;;;;;;;3;2.7;;;;;;;12.44;100;949.9177;;;;
2020/06/07 07:16:21;;;;;;;2.7;2.5;;;;;;;12.39;100;949.9378;;;;
2020/06/07 07:21:15;;;;;;;3.3;2.6;;;;;;;12.32;100;950.0563;;;;
2020/06/07 07:23:47;;;;;;;3.1;2.7;;;;;;;12.46;100;950.0305;;;;
2020/06/07 07:26:20;;;;;;;4.9;3;;;;;;;12.56;100;950.0284;;;;
2020/06/07 07:31:25;;;;;;;3;2.7;;;;;;;12.61;100;949.9972;;;;
2020/06/07 07:33:37;;;;;;;2.9;2.5;;;;;;;12.55;100;949.9288;;;;
2020/06/07 07:36:20;;;;;;;2.5;2.3;;;;;;;12.49;100;949.8711;;;;
2020/06/07 07:41:35;;;;;;;2.3;2.1;;;;;;;12.56;100;949.9557;;;;
2020/06/07 07:43:52;;;;;;;2.4;2.1;;;;;;;12.68;100;950.0255;;;;
2020/06/07 07:51:22;;;;;;;3.2;2;;;;;;;12.59;100;950.0251;;;;
2020/06/07 08:07:10;;;;;;;1.9;1.7;;;;;;;12.23;100;950.175;;;;
2020/06/07 08:09:00;;;;;;;2.2;1.8;;;;;;;12.32;100;950.1967;;;;
2020/06/07 08:11:50;;;;;;;2.4;2.2;;;;;;;12.1;100;950.2162;;;;
2020/06/07 08:14:15;;;;;;;4.2;2.7;;;;;;;12.02;100;950.2269;;;;
2020/06/07 08:16:51;;;;;;;3.6;3.1;;;;;;;12.12;100;950.2686;;;;
2020/06/07 08:19:19;;;;;;;3.8;3.3;;;;;;;12.29;100;950.2671;;;;
2020/06/07 08:24:30;;;;;;;4.3;3.9;;;;;;;12.34;100;950.303;;;;
2020/06/07 08:31:49;;;;;;;4.5;4.1;;;;;;;12.31;100;950.4445;;;;
2020/06/07 08:34:13;;;;;;;4.5;4.1;;;;;;;12.47;100;950.4855;;;;
2020/06/07 08:36:46;;;;;;;5;4.5;;;;;;;12.36;100;950.522;;;;
2020/06/07 08:39:19;;;;;;;5;3.2;;;;;;;12.23;100;950.6487;;;;
2020/06/07 08:42:00;;;;;;;4.1;2.1;;;;;;;12.07;100;950.5993;;;;
2020/06/07 08:44:43;;;;;;;2.3;2;;;;;;;12.1;100;950.6532;;;;
2020/06/07 08:47:09;;;;;;;2.8;2.5;;;;;;;12.16;100;950.7192;;;;
2020/06/07 08:49:41;;;;;;;2.7;2.1;;;;;;;12.14;100;950.715;;;;
2020/06/07 08:52:16;;;;;;;3.3;2.4;;;;;;;12.01;100;950.7651;;;;
2020/06/07 08:54:41;;;;;;;2.7;2.3;;;;;;;12.09;100;950.7766;;;;
2020/06/07 08:57:06;;;;;;;2.5;2.3;;;;;;;12.07;100;950.7283;;;;
2020/06/07 08:59:31;;;;;;;2.9;2.4;;;;;;;12.02;100;950.7528;;;;
2020/06/07 09:02:14;;;;;;;3.3;2.4;;;;;;;12.01;100;950.7431;;;;
2020/06/07 09:04:39;;;;;;;3.3;3;;;;;;;12.08;100;950.769;;;;
2020/06/07 09:07:08;;;;;;;4.7;3;;;;;;;12.11;100;950.7755;;;;
2020/06/07 09:09:35;;;;;;;4.5;3;;;;;;;11.9;100;950.8019;;;;
2020/06/07 09:12:07;;;;;;;3.5;2.7;;;;;;;11.96;100;950.8035;;;;
2020/06/07 09:14:36;;;;;;;2.9;2.6;;;;;;;11.88;100;950.7955;;;;
2020/06/07 09:17:04;;;;;;;3;2.7;;;;;;;12.04;100;950.7389;;;;
2020/06/07 09:19:36;;;;;;;3.5;2.8;;;;;;;12;100;950.765;;;;
2020/06/07 09:22:20;;;;;;;3.1;2.6;;;;;;;12.01;100;950.7529;;;;
2020/06/07 09:24:43;;;;;;;2.9;2.6;;;;;;;12.03;100;950.6836;;;;
2020/06/07 09:27:06;;;;;;;2.9;2.5;;;;;;;11.95;100;950.735;;;;
2020/06/07 09:29:31;;;;;;;3.2;2.2;;;;;;;11.96;100;950.7822;;;;
2020/06/07 09:33:07;;;;;;;3;2.6;;;;;;;12.03;100;950.7913;;;;
2020/06/07 09:34:41;;;;;;;4.1;2.4;;;;;;;12.04;100;950.8215;;;;
2020/06/07 09:37:07;;;;;;;2.7;2.5;;;;;;;11.91;100;950.7939;;;;
2020/06/07 09:40:06;;;;;;;3.9;2.8;;;;;;;11.94;100;950.8331;;;;
2020/06/07 09:42:21;;;;;;;2.9;2.6;;;;;;;11.88;100;950.8583;;;;
2020/06/07 09:44:54;;;;;;;3.9;2.9;;;;;;;11.96;100;950.8599;;;;
2020/06/07 09:47:21;;;;;;;3.4;2.4;;;;;;;12.16;100;950.8908;;;;
2020/06/07 09:50:01;;;;;;;2.9;2.6;;;;;;;11.76;100;950.8539;;;;
2020/06/07 09:52:28;;;;;;;2.9;2.7;;;;;;;12.12;100;950.9277;;;;
2020/06/07 09:55:12;;;;;;;3.3;3;;;;;;;12.13;100;951.0231;;;;
2020/06/07 09:57:37;;;;;;;2.9;2.4;;;;;;;11.97;100;951.1147;;;;
2020/06/07 10:00:05;;;;;;;2.5;2.3;;;;;;;12.08;100;951.1692;;;;
2020/06/07 10:02:36;;;;;;;2.7;2.2;;;;;;;11.81;100;951.1788;;;;
2020/06/07 10:05:00;;;;;;;2.4;2.2;;;;;;;11.86;100;951.1742;;;;
2020/06/07 10:07:46;;;;;;;2.6;2.1;;;;;;;11.95;100;951.2379;;;;
2020/06/07 10:12:50;;;;;;;2.2;2;;;;;;;11.91;100;951.363;;;;
2020/06/07 10:15:34;;;;;;;3.4;2.5;;;;;;;11.96;100;951.3342;;;;
2020/06/07 10:17:56;;;;;;;2.9;2.2;;;;;;;11.71;100;951.3608;;;;
2020/06/07 10:20:32;;;;;;;3.1;2.6;;;;;;;11.91;100;951.4078;;;;
2020/06/07 10:23:11;;;;;;;3.2;2.7;;;;;;;11.86;100;951.4166;;;;
2020/06/07 10:25:53;;;;;;;3.8;3.4;;;;;;;12.01;100;951.4681;;;;
2020/06/07 10:28:44;;;;;;;5.2;3.7;;;;;;;12.03;100;951.4766;;;;
2020/06/07 10:31:05;;;;;;;3.6;3.3;;;;;;;12.12;100;951.483;;;;
2020/06/07 10:35:50;;;;;;;4.1;2.9;;;;;;;12.03;100;951.4969;;;;
2020/06/07 10:39:53;;;;;;;3.5;2.8;;;;;;;12.14;100;951.5628;;;;
2020/06/07 10:40:40;;;;;;;3;2.8;;;;;;;12.06;100;951.6014;;;;
2020/06/07 10:43:42;;;;;;;3.7;3.4;;;;;;;11.98;100;951.6298;;;;
2020/06/07 10:46:32;;;;;;;3.6;3.3;;;;;;;12.03;100;951.5991;;;;
2020/06/07 10:48:30;;;;;;;4.2;3.8;;;;;;;11.76;100;951.6473;;;;
2020/06/07 10:51:35;;;;;;;4.7;4.2;;;;;;;11.87;100;951.717;;;;
2020/06/07 10:56:12;;;;;;;5.4;4.6;;;;;;;11.85;100;951.7367;;;;
2020/06/07 11:01:16;;;;;;;5.7;5.2;;;;;;;11.85;100;951.868;;;;
2020/06/07 11:08:28;;;;;;;4.7;4.3;;;;;;;11.91;100;951.9084;;;;
2020/06/07 11:11:38;;;;;;;4.5;4.1;;;;;;;11.92;100;951.9475;;;;
2020/06/07 11:28:45;;;;;;;1.5;1.1;;;;;;;11.16;100;952.1805;;;;
2020/06/07 11:39:00;;;;;;;2.5;1.8;;;;;;;11.36;100;952.2263;;;;
2020/06/07 11:42:24;;;;;;;1.9;1.6;;;;;;;11.2;100;952.2722;;;;
2020/06/07 11:46:45;;;;;;;3.7;1.7;;;;;;;11.27;100;952.3197;;;;
2020/06/07 11:49:25;;;;;;;3;1.8;;;;;;;11.21;100;952.3406;;;;
2020/06/07 11:51:54;;;;;;;2.8;2;;;;;;;11.35;100;952.4025;;;;
2020/06/07 11:54:24;;;;;;;2.9;2.2;;;;;;;11.26;100;952.403;;;;
2020/06/07 11:59:23;;;;;;;1.9;1.6;;;;;;;11.13;100;952.4342;;;;
2020/06/07 12:01:59;;;;;;;2.4;1.8;;;;;;;11.26;100;952.4829;;;;
2020/06/07 12:04:12;;;;;;;3.8;1.9;;;;;;;11.08;100;952.4819;;;;
2020/06/07 12:06:54;;;;;;;2.4;1.6;;;;;;;11.12;100;952.4853;;;;
2020/06/07 12:09:32;;;;;;;3;1.8;;;;;;;11.08;100;952.5553;;;;
2020/06/07 12:12:10;;;;;;;2.1;1.8;;;;;;;11.09;100;952.574;;;;
2020/06/07 12:18:46;;;;;;;3.2;1.9;;;;;;;10.94;100;952.6563;;;;
2020/06/07 12:22:03;;;;;;;2.6;1.7;;;;;;;10.87;100;952.7081;;;;
2020/06/07 12:27:39;;;;;;;2.7;1.7;;;;;;;10.87;100;952.8019;;;;
2020/06/07 12:30:18;;;;;;;2.1;1.4;;;;;;;10.82;100;952.7639;;;;
2020/06/07 12:35:27;;;;;;;1.7;1.4;;;;;;;10.61;100;952.7942;;;;
2020/06/07 12:40:21;;;;;;;3.3;1.5;;;;;;;10.56;100;952.8372;;;;
2020/06/07 12:43:33;;;;;;;2.7;1.1;;;;;;;10.24;100;952.9374;;;;
2020/06/07 12:48:26;;;;;;;2.4;1.5;;;;;;;10.41;100;952.9456;;;;
2020/06/07 12:51:09;;;;;;;2.7;1.6;;;;;;;10.44;100;952.9828;;;;
2020/06/07 12:53:59;;;;;;;3.4;1.6;;;;;;;10.32;100;953.0037;;;;
2020/06/07 12:56:45;;;;;;;3;1.5;;;;;;;10.21;100;953.0422;;;;
2020/06/07 13:02:23;;;;;;;2.7;1.8;;;;;;;10.34;100;953.1699;;;;
2020/06/07 13:06:41;;;;;;;2.9;1.7;;;;;;;10.31;100;953.251;;;;
2020/06/07 13:09:09;;;;;;;3.3;1.8;;;;;;;10.33;100;953.274;;;;
2020/06/07 13:11:41;;;;;;;3.1;1.7;;;;;;;10.29;100;953.2828;;;;
2020/06/07 13:14:21;;;;;;;4.4;1.9;;;;;;;10.5;100;953.3019;;;;
2020/06/07 13:19:27;;;;;;;3.5;1.5;;;;;;;10.26;100;953.2589;;;;
2020/06/07 13:21:59;;;;;;;3.3;1.9;;;;;;;10.29;100;953.2567;;;;
2020/06/07 13:26:56;;;;;;;3.8;1.9;;;;;;;10.33;100;953.305;;;;
2020/06/07 13:29:23;;;;;;;4.5;2.3;;;;;;;10.39;100;953.2658;;;;
2020/06/07 13:32:19;;;;;;;4;3.2;;;;;;;10.4;100;953.3544;;;;
2020/06/07 13:34:50;;;;;;;4.6;3;;;;;;;10.4;100;953.3879;;;;
2020/06/07 13:39:43;;;;;;;2.9;1.6;;;;;;;10.12;100;953.3979;;;;
2020/06/07 13:42:03;;;;;;;2.6;1.5;;;;;;;10.21;100;953.4216;;;;
2020/06/07 13:44:32;;;;;;;3;1.5;;;;;;;10.22;100;953.4949;;;;
2020/06/07 13:47:04;;;;;;;2.8;1.7;;;;;;;10.37;100;953.4446;;;;
2020/06/07 13:52:04;;;;;;;3.2;1.8;;;;;;;10.38;100;953.5263;;;;
2020/06/07 13:54:36;;;;;;;3.5;1.5;;;;;;;10.33;100;953.5673;;;;
2020/06/07 13:57:03;;;;;;;2.4;1.4;;;;;;;10.11;100;953.5645;;;;
2020/06/07 13:59:47;;;;;;;2.3;1.4;;;;;;;10.32;100;953.615;;;;
2020/06/07 14:02:34;;;;;;;3.6;1.5;;;;;;;10.16;100;953.631;;;;
2020/06/07 14:07:15;;;;;;;3.4;1.9;;;;;;;10.29;100;953.5414;;;;
2020/06/07 14:12:16;;;;;;;2.6;1.8;;;;;;;10.43;100;953.481;;;;
2020/06/07 14:14:45;;;;;;;3.3;1.9;;;;;;;10.54;100;953.483;;;;
2020/06/07 14:17:09;;;;;;;4.1;2.2;;;;;;;10.6;100;953.4509;;;;
2020/06/07 14:31:48;;;;;;;4;1.7;;;;;;;10.54;100;953.3958;;;;
2020/06/07 14:37:22;;;;;;;3.1;1.8;;;;;;;10.94;100;953.408;;;;
2020/06/07 14:41:55;;;;;;;2.8;1.7;;;;;;;10.66;100;953.4522;;;;
2020/06/07 14:49:38;;;;;;;4.2;2.4;;;;;;;10.73;100;953.3729;;;;
2020/06/07 14:52:50;;;;;;;4;2.6;;;;;;;10.9;100;953.4208;;;;
2020/06/07 14:57:28;;;;;;;3.4;2.4;;;;;;;10.95;100;953.3642;;;;
2020/06/07 15:04:54;;;;;;;3.7;2;;;;;;;10.68;100;953.2838;;;;
2020/06/07 15:07:25;;;;;;;3.1;1.7;;;;;;;10.49;100;953.2738;;;;
2020/06/07 15:10:13;;;;;;;3;1.9;;;;;;;10.51;100;953.2782;;;;
2020/06/07 15:14:47;;;;;;;3.3;2.4;;;;;;;10.72;100;953.2263;;;;
2020/06/07 15:17:22;;;;;;;5;3.3;;;;;;;10.71;100;953.2374;;;;
2020/06/07 15:30:06;;;;;;;4.4;1.8;;;;;;;10.67;100;953.4465;;;;
2020/06/07 15:32:39;;;;;;;4.1;1.9;;;;;;;10.64;100;953.4683;;;;
2020/06/07 15:34:58;;;;;;;3.5;1.8;;;;;;;10.57;100;953.5051;;;;
2020/06/07 15:39:06;;;;;;;2.9;2.1;;;;;;;10.45;100;953.5684;;;;
2020/06/07 15:42:46;;;;;;;3.3;1.8;;;;;;;10.52;100;953.6284;;;;
2020/06/07 15:50:04;;;;;;;3.9;1.7;;;;;;;10.57;100;953.6453;;;;
2020/06/07 15:52:25;;;;;;;3.8;1.8;;;;;;;10.54;100;953.6467;;;;
2020/06/07 15:54:51;;;;;;;3;1.6;;;;;;;10.5;100;953.6188;;;;
2020/06/07 15:57:38;;;;;;;3.8;1.6;;;;;;;10.51;100;953.6554;;;;
2020/06/07 16:00:13;;;;;;;2.9;1.8;;;;;;;10.53;100;953.6945;;;;
2020/06/07 16:05:20;;;;;;;4.4;2;;;;;;;10.61;100;953.6057;;;;
2020/06/07 16:23:28;;;;;;;9.3;6.9;;;;;;;10.93;100;953.6231;;;;
2020/06/07 16:25:52;;;;;;;4.8;3.7;;;;;;;11.08;100;953.6348;;;;
2020/06/07 16:28:10;;;;;;;5.5;3;;;;;;;11.03;100;953.6548;;;;
2020/06/07 16:38:04;;;;;;;3.5;2.5;;;;;;;10.75;99.30762;953.6926;;;;
2020/06/07 16:40:02;;;;;;;4.6;2.4;;;;;;;10.88;100;953.7653;;;;
2020/06/07 16:42:29;;;;;;;4.2;2.2;;;;;;;10.98;100;953.7525;;;;
2020/06/07 16:44:57;;;;;;;2.9;1.7;;;;;;;10.72;96.21582;953.7999;;;;
2020/06/07 16:47:31;;;;;;;3.3;1.7;;;;;;;10.72;100;953.7852;;;;
2020/06/07 16:50:06;;;;;;;2.7;1.8;;;;;;;10.66;100;953.8547;;;;
2020/06/07 16:53:16;;;;;;;3.6;2.2;;;;;;;10.87;100;953.8575;;;;
2020/06/07 17:12:49;;;;;;;5.3;2.4;;;;;;;11.22;99.63574;954.118;;;;
2020/06/07 17:17:59;;;;;;;3.8;2;;;;;;;11.32;97.68457;954.1178;;;;
2020/06/07 17:23:00;;;;;;;4.2;2.4;;;;;;;11.21;100;954.1951;;;;
2020/06/07 17:25:20;;;;;;;4.9;2.6;;;;;;;11.18;99.71973;954.155;;;;
2020/06/07 17:27:48;;;;;;;4.8;2.2;;;;;;;11.15;99.63281;954.1401;;;;
2020/06/07 17:44:46;;;;;;;3.1;1.9;;;;;;;11.26;100;954.1345;;;;
2020/06/07 17:48:41;;;;;;;4.5;2.1;;;;;;;11.36;100;954.1719;;;;
2020/06/07 17:51:36;;;;;;;3.1;1.7;;;;;;;11.23;95.70703;954.2704;;;;
2020/06/07 17:54:02;;;;;;;4;2.1;;;;;;;11;93.9502;954.2978;;;;
2020/06/07 17:56:30;;;;;;;2.8;1.9;;;;;;;10.99;94.44336;954.2963;;;;
2020/06/07 17:59:12;;;;;;;4;2.2;;;;;;;10.92;93.90039;954.2517;;;;
2020/06/07 18:04:17;;;;;;;4.1;2.6;;;;;;;11;100;954.2595;;;;
2020/06/07 18:12:03;;;;;;;4.7;2.8;;;;;;;10.95;100;954.2128;;;;
2020/06/07 18:14:53;;;;;;;5;2.5;;;;;;;10.96;98.86133;954.256;;;;
2020/06/07 18:16:54;;;;;;;5;2.7;;;;;;;11.05;100;954.2731;;;;
2020/06/07 18:19:22;;;;;;;4.6;2.5;;;;;;;11.09;100;954.2921;;;;
2020/06/07 18:21:46;;;;;;;4;2.5;;;;;;;11.07;100;954.3386;;;;
2020/06/07 18:24:29;;;;;;;3.2;2.5;;;;;;;11.16;100;954.3791;;;;
2020/06/07 18:26:45;;;;;;;4.1;2.5;;;;;;;11.12;100;954.3878;;;;
2020/06/07 18:31:52;;;;;;;3.4;2.6;;;;;;;11.06;100;954.3709;;;;
2020/06/07 18:36:49;;;;;;;4.2;2.6;;;;;;;11.22;100;954.3977;;;;
2020/06/07 18:42:18;;;;;;;3.8;2.7;;;;;;;11.18;100;954.3931;;;;
2020/06/07 18:44:48;;;;;;;3;2.3;;;;;;;11.27;100;954.4045;;;;
2020/06/07 18:47:22;;;;;;;4.5;2.5;;;;;;;11.25;100;954.3756;;;;
2020/06/07 18:49:47;;;;;;;3.4;2.6;;;;;;;11.26;100;954.4256;;;;
2020/06/07 18:54:49;;;;;;;4;2.6;;;;;;;11.21;100;954.4839;;;;
2020/06/07 18:59:23;;;;;;;3.9;2.5;;;;;;;11.17;100;954.5285;;;;
2020/06/07 19:10:12;;;;;;;3.7;2.7;;;;;;;11.05;100;954.5845;;;;
2020/06/07 19:15:27;;;;;;;3.8;3;;;;;;;10.98;100;954.4871;;;;
2020/06/07 19:19:39;;;;;;;3.9;3.3;;;;;;;10.96;100;954.5136;;;;
2020/06/07 19:22:22;;;;;;;4.9;3.3;;;;;;;11;100;954.5261;;;;
2020/06/07 19:26:03;;;;;;;4.7;3.6;;;;;;;10.9;100;954.5759;;;;
2020/06/07 19:30:49;;;;;;;5;3.1;;;;;;;10.95;100;954.6397;;;;
2020/06/07 19:36:42;;;;;;;4.1;3;;;;;;;10.89;100;954.6418;;;;
2020/06/07 19:43:39;;;;;;;3.5;2.7;;;;;;;10.89;100;954.7445;;;;
2020/06/07 19:48:17;;;;;;;4.7;3.1;;;;;;;10.92;100;954.7343;;;;
2020/06/07 19:51:26;;;;;;;4.4;3.3;;;;;;;10.89;100;954.7223;;;;
2020/06/07 19:52:56;;;;;;;3.7;3;;;;;;;10.98;100;954.7365;;;;
2020/06/07 19:55:27;;;;;;;3.8;3.3;;;;;;;10.99;100;954.747;;;;
2020/06/07 19:57:56;;;;;;;3.9;3.1;;;;;;;11.03;100;954.7701;;;;
2020/06/07 20:05:56;;;;;;;4.5;3.3;;;;;;;11.01;100;954.8661;;;;
2020/06/07 20:08:17;;;;;;;4.7;3.2;;;;;;;11.08;100;954.9403;;;;
2020/06/07 20:13:29;;;;;;;3.9;2.9;;;;;;;11.04;100;954.9433;;;;
2020/06/07 20:20:41;;;;;;;3.3;2.9;;;;;;;11.03;100;954.9267;;;;
2020/06/07 20:23:04;;;;;;;4;2.8;;;;;;;10.99;100;954.8677;;;;
2020/06/07 20:25:24;;;;;;;3.3;2.7;;;;;;;10.97;100;954.8633;;;;
2020/06/07 20:27:57;;;;;;;3.2;2.7;;;;;;;11.01;100;954.877;;;;
2020/06/07 20:30:35;;;;;;;2.9;2.2;;;;;;;11.03;100;954.7938;;;;
2020/06/07 20:38:11;;;;;;;3.5;2.5;;;;;;;10.91;100;954.8563;;;;
2020/06/07 20:40:56;;;;;;;3.1;2.4;;;;;;;10.92;100;954.8753;;;;
2020/06/07 20:43:11;;;;;;;3.5;2.5;;;;;;;10.98;100;954.9615;;;;
2020/06/07 20:46:24;;;;;;;3.9;2.6;;;;;;;10.91;100;955.0013;;;;
2020/06/07 20:48:20;;;;;;;2.7;2.4;;;;;;;10.95;100;955.0533;;;;
2020/06/07 20:50:42;;;;;;;3.7;2.4;;;;;;;10.9;100;955.0511;;;;
2020/06/07 20:53:10;;;;;;;3.2;2.7;;;;;;;10.88;100;955.0475;;;;
2020/06/07 20:55:59;;;;;;;3.7;2.9;;;;;;;10.92;100;955.0783;;;;
2020/06/07 20:58:28;;;;;;;2.8;2.5;;;;;;;10.97;100;955.1194;;;;
2020/06/07 21:03:46;;;;;;;2.5;2.1;;;;;;;10.93;100;954.9878;;;;
2020/06/07 21:11:31;;;;;;;3.5;2.1;;;;;;;10.96;100;955.1324;;;;
2020/06/07 21:16:25;;;;;;;2.7;1.8;;;;;;;10.92;100;955.0864;;;;
2020/06/07 21:19:09;;;;;;;2.1;1.7;;;;;;;10.91;100;955.0372;;;;
2020/06/07 21:21:22;;;;;;;2.1;1.9;;;;;;;10.95;100;955.0485;;;;
2020/06/07 21:24:01;;;;;;;2.2;1.8;;;;;;;10.93;100;955.0676;;;;
2020/06/07 21:26:28;;;;;;;2.4;1.6;;;;;;;10.9;100;955.016;;;;
2020/06/07 21:28:54;;;;;;;2.1;1.7;;;;;;;10.85;100;955.0455;;;;
2020/06/07 21:31:28;;;;;;;3.9;2.4;;;;;;;10.93;100;955.0327;;;;
2020/06/07 21:34:06;;;;;;;5;3.3;;;;;;;10.87;100;955.0231;;;;
2020/06/07 21:36:38;;;;;;;5.2;3.6;;;;;;;10.85;100;955.0709;;;;
2020/06/07 21:39:08;;;;;;;4.5;3.5;;;;;;;10.86;100;955.0776;;;;
2020/06/07 21:41:36;;;;;;;3.8;3.1;;;;;;;10.83;100;955.0831;;;;
2020/06/07 21:44:02;;;;;;;3.4;2.5;;;;;;;10.74;100;955.0511;;;;
2020/06/07 21:46:31;;;;;;;3.7;2.5;;;;;;;10.69;100;955.1174;;;;
2020/06/07 21:48:59;;;;;;;2.5;2.2;;;;;;;10.71;100;955.0826;;;;
2020/06/07 21:51:29;;;;;;;2.7;2;;;;;;;10.68;100;955.0781;;;;
2020/06/07 21:54:03;;;;;;;2.1;1.9;;;;;;;10.77;100;955.1082;;;;
2020/06/07 21:56:28;;;;;;;2.1;1.9;;;;;;;10.71;100;955.0432;;;;
2020/06/07 21:59:01;;;;;;;1.8;1.6;;;;;;;10.71;100;955.0198;;;;
2020/06/07 22:01:41;;;;;;;2.5;1.7;;;;;;;10.64;100;954.9919;;;;
2020/06/07 22:04:19;;;;;;;2.7;1.7;;;;;;;10.59;100;955.0067;;;;
2020/06/07 22:06:57;;;;;;;2.1;1.5;;;;;;;10.6;100;954.9827;;;;
2020/06/07 22:09:25;;;;;;;1.5;1.4;;;;;;;10.57;100;955.0508;;;;
2020/06/07 22:11:55;;;;;;;2.1;1.7;;;;;;;10.58;100;955.0181;;;;
2020/06/07 22:14:27;;;;;;;3;1.7;;;;;;;10.54;100;955.0577;;;;
2020/06/07 22:16:52;;;;;;;2.5;1.7;;;;;;;10.44;100;955.1153;;;;
2020/06/07 22:19:30;;;;;;;1.5;1.3;;;;;;;10.44;100;955.0786;;;;
2020/06/07 22:24:38;;;;;;;2.7;1.6;;;;;;;10.42;100;955.0595;;;;
2020/06/07 22:27:27;;;;;;;2.9;1.8;;;;;;;10.42;100;954.9993;;;;
2020/06/07 22:30:12;;;;;;;1.6;1.5;;;;;;;10.45;100;955.0469;;;;
2020/06/07 22:32:51;;;;;;;2.2;1.7;;;;;;;10.45;100;955.0844;;;;
2020/06/07 22:37:48;;;;;;;2.7;1.8;;;;;;;10.35;100;955.0593;;;;
2020/06/07 22:40:29;;;;;;;2;1.8;;;;;;;10.23;100;955.0562;;;;
2020/06/07 22:43:15;;;;;;;1.9;1.5;;;;;;;10.29;100;955.0377;;;;
2020/06/07 22:46:00;;;;;;;2.6;1.9;;;;;;;10.19;100;955.0441;;;;
2020/06/07 22:48:45;;;;;;;2;1.7;;;;;;;10.1;100;955.0184;;;;
2020/06/07 22:51:23;;;;;;;2.1;1.9;;;;;;;10.18;100;955.1018;;;;
2020/06/07 22:53:57;;;;;;;2.1;1.9;;;;;;;10.17;100;955.1027;;;;
2020/06/07 22:56:24;;;;;;;3;2.1;;;;;;;10.11;100;955.0372;;;;
2020/06/07 22:58:51;;;;;;;2.2;2;;;;;;;10.13;100;954.9977;;;;
2020/06/07 23:01:36;;;;;;;2.9;1.9;;;;;;;10.14;100;954.9944;;;;
2020/06/07 23:04:03;;;;;;;3.1;2.3;;;;;;;10.02;100;954.9456;;;;
2020/06/07 23:06:39;;;;;;;2.5;2.1;;;;;;;10.15;100;954.9907;;;;
2020/06/07 23:09:08;;;;;;;3;2.3;;;;;;;9.98;100;954.9875;;;;
2020/06/07 23:11:42;;;;;;;2.9;2.6;;;;;;;10.02;100;954.9814;;;;